City's sites:

title views votes rating creation
?never been here 394 12 (3.08)  2010-02-07
?pastel negro 621 14 (2.50)  2010-02-07
?dizzy 282 8 (3.38)  2010-02-07
?two pictures from my desktop 874 16 (3.69)  2010-02-09
?broken clock realizes he is the last object left in the ... 445 10 (3.20)  2010-02-09
?heroes of old 597 19 (3.74)  2010-02-09
?mr. price 454 8 (3.25)  2010-02-09
?Music I Like - Part 1 629 10 (3.60)  2010-02-10
?Music I Like - Part 2 397 13 (3.54)  2010-02-10
?Music I Like - Part 3 553 13 (3.69)  2010-02-10
?Music I Like - Part 4 432 5 (3.20)  2010-02-10
?intense 553 9 (3.78)  2010-02-10
?oh SNAP 791 9 (3.22)  2010-02-10
?Music I Like - Part 5 563 9 (3.56)  2010-02-10
?SignlanguageTMND 413 14 (3.86)  2010-02-10
?lol internet (refresh) 623 6 (3.17)  2010-02-12
?Dumbeldore kills snape! 3,362 67 (4.03)  2010-02-12
?prairiedogeric10 tribute site 697 23 (3.96)  2010-02-13
?Legolewdite fan club 1,305 38 (3.87)  2010-02-13
?Connery retires 418 13 (3.85)  2010-02-13
?TOURNEY4: lol internet 558 7 (2.43)  2010-02-15
?Speed Deemon 1,029 23 (3.74)  2010-02-23
?Tribute: ASSCOCKredux 1,676 64 (3.91)  2010-02-23
?some light jazz with Robert De Niro 869 12 (3.50)  2010-02-23
?In What Language 1,467 34 (3.74)  2010-02-24
?go go go go go go go go go go go go go go go go ... 2,083 23 (3.74)  2010-02-24
?FEARCONDOM'S FAMILY Q U I L T 616 11 (3.55)  2010-02-24
?TEST 790 19 (3.84)  2010-02-26
?....someday, oh dream maker DUNANANANAN... 5,123 148 (3.96)  2010-02-28
?DOUGH FUNNIE HOMO DICKS 660 12 (3.58)  2010-03-01
?Using a concrete bricK 599 17 (3.82)  2010-03-01
?I had sex with a Kayan Tribe woman, little help plea... 996 11 (3.36)  2010-03-03
?Adventure 4 1,109 18 (3.61)  2010-03-03
?the standoff 476 9 (3.67)  2010-03-03
?alley children 534 11 (3.91)  2010-03-05
?Steven Seagal isn't impressed 9,886 181 (4.17)  2010-03-05
?Daunting Steps 229 7 (3.00)  2010-03-05
?Cruel and Unusual 6,229 163 (4.24)  2010-03-09
?DancehallTMND 471 10 (3.80)  2010-03-12
?FUCK OUT MY FACE 495 5 (2.60)  2010-03-18
?16, no dither 809 18 (3.94)  2010-03-20
?say hi to my girlfriend 1,013 16 (3.81)  2010-03-21
?TT 641 16 (3.88)  2010-03-23
?jimmm thinks about his next five 699 20 (3.80)  2010-03-24
?THE TELEKINETIC MAN 300 18 (3.50)  2010-03-25
?. 130 7 (2.71)  2010-03-26
?1! 365 17 (3.35)  2010-03-26
?Fake crocodile takes it to the limit one more time 615 9 (3.67)  2010-03-27
?croctheme 405 4 (3.25)  2010-03-27
?crocodile site 460 6 (3.50)  2010-03-27
?CROC MAKES A 187 LOOK EASY 205 6 (3.33)  2010-03-27
?New Croc SIte 177 5 (3.40)  2010-03-27
?L 399 19 (3.63)  2010-03-27
?crocodile sIte 321 10 (3.50)  2010-03-30
?Pleasant® 374 8 (3.38)  2010-03-30
?A Lovely Ride 294 13 (3.85)  2010-03-30
?It's glorious today 295 14 (3.64)  2010-04-01
?Na - Zu 438 10 (3.70)  2010-04-01
?WHO'NOWOWOWOW 425 5 (2.60)  2010-04-03
?part of your world 222 5 (3.00)  2010-04-04
?fff 182 4 (3.50)  2010-04-04
?FIve-star webiste 1,028 16 (1.94)  2010-04-04
?Captain Haddock 1,764 28 (3.86)  2010-04-04
?, 280 9 (3.33)  2010-04-05
?indnian 444 7 (2.71)  2010-04-05
?Ricky Manning tribute sIte will be Underway soon ! 240 3 (3.67)  2010-04-06
?Epic Domain Grab 220 6 (2.17)  2010-04-06
?retirement site 169 6 (2.83)  2010-04-06
?Paul newman doesn't drive a VAN 207 4 (3.00)  2010-04-06
?Vince McMan 380 7 (2.86)  2010-04-06
?LOL 329 5 (3.00)  2010-04-06
?wut 332 4 (2.75)  2010-04-06
?www.coachcarter.ytmnd.com 350 8 (1.88)  2010-04-06
?untitled 335 7 (2.14)  2010-04-09
?ExpirimennalTYTMND 402 8 (3.38)  2010-04-09
?jioejejejoijiojiojioejiejoijeoj 435 14 (3.79)  2010-04-09
?Jake Steele catches a fly ball 379 4 (3.50)  2010-04-10
?Jake Steele forgets the milk 356 3 (3.00)  2010-04-10
?Jake Steele just found his watch 353 4 (3.25)  2010-04-10
?Jake Steele grows up a bit 465 7 (2.86)  2010-04-10
?KRA2008 395 5 (2.60)  2010-04-10
?Fuck the world 812 26 (3.88)  2010-04-16
?a sexual guy 523 10 (2.30)  2010-05-12
?well 349 4 (4.25)  2010-09-03
?gay site you can watch while thinking about stuff 1,633 15 (4.07)  2010-09-13
?site dedicated to great warchief 1,312 12 (3.58)  2010-09-16
?38388 883 8 (3.88)  2010-09-16
?watching the world buzz by 537 4 (3.50)  2010-09-16
?what now 1,489 17 (3.94)  2010-09-16